Time;durP1;ratioP1;P1;durP2;ratioP2;P2;SDS_P1;SDS_P2;PMS_P1;PMS_P2;Temp;Humidity;BMP_temperature;BMP_pressure;BME280_temperature;BME280_humidity;BME280_pressure;Samples;Min_cycle;Max_cycle;Signal;HPM_P1;HPM_P2
2021/09/24 00:02:22;;;;;;;9.52;4.35;;;18.90;74.70;;;;;;5078317;28;20050;-60
2021/09/24 00:04:49;;;;;;;7.38;4.10;;;18.90;74.80;;;;;;5096193;28;20048;-60
2021/09/24 00:07:17;;;;;;;7.72;4.28;;;18.90;74.80;;;;;;5094656;28;20142;-60
2021/09/24 00:09:45;;;;;;;5.95;4.07;;;18.80;74.80;;;;;;5095797;28;20040;-60
2021/09/24 00:12:13;;;;;;;6.72;4.47;;;18.70;75.00;;;;;;5095696;28;20047;-61
2021/09/24 00:14:41;;;;;;;6.82;4.15;;;18.70;75.10;;;;;;5094737;28;20123;-60
2021/09/24 00:17:09;;;;;;;8.80;4.53;;;18.70;75.20;;;;;;5095994;28;20121;-60
2021/09/24 00:19:37;;;;;;;6.28;4.10;;;18.70;75.30;;;;;;5094669;28;20044;-60
2021/09/24 00:22:04;;;;;;;6.15;4.18;;;18.70;75.60;;;;;;5077595;28;20074;-60
2021/09/24 00:24:32;;;;;;;6.80;4.45;;;18.60;75.70;;;;;;5095588;28;20532;-60
2021/09/24 00:27:00;;;;;;;7.57;3.95;;;18.60;76.00;;;;;;5095504;28;20117;-60
2021/09/24 00:29:27;;;;;;;9.55;3.30;;;18.50;76.20;;;;;;5094702;28;20036;-60
2021/09/24 00:31:55;;;;;;;9.68;3.88;;;18.50;76.30;;;;;;5094480;28;20555;-60
2021/09/24 00:34:23;;;;;;;9.38;4.00;;;18.50;76.50;;;;;;5095300;28;20040;-60
2021/09/24 00:36:51;;;;;;;5.20;3.40;;;18.50;76.70;;;;;;5094266;28;20040;-60
2021/09/24 00:39:18;;;;;;;7.97;3.65;;;18.50;76.90;;;;;;5093997;28;20059;-60
2021/09/24 00:41:46;;;;;;;5.80;3.97;;;18.40;77.00;;;;;;5095312;28;20051;-60
2021/09/24 00:44:14;;;;;;;5.20;3.38;;;18.40;77.10;;;;;;5094458;28;20044;-60
2021/09/24 00:46:41;;;;;;;5.00;3.38;;;18.40;77.20;;;;;;5095415;28;20052;-60
2021/09/24 00:49:15;;;;;;;5.78;3.63;;;18.40;77.40;;;;;;5094081;28;20126;-60
2021/09/24 00:51:57;;;;;;;7.72;3.75;;;18.40;77.60;;;;;;5095079;28;20135;-61
2021/09/24 00:54:25;;;;;;;6.93;3.95;;;18.30;77.70;;;;;;5095103;28;20058;-60
2021/09/24 00:57:03;;;;;;;7.78;3.83;;;18.30;77.90;;;;;;5094102;28;20375;-60
2021/09/24 00:59:31;;;;;;;6.18;3.75;;;18.20;78.00;;;;;;5094992;28;20067;-60
2021/09/24 01:01:59;;;;;;;6.03;3.55;;;18.20;78.00;;;;;;5094963;28;20048;-60
2021/09/24 01:04:27;;;;;;;7.20;4.47;;;18.20;78.10;;;;;;5094676;28;20048;-60
2021/09/24 01:06:55;;;;;;;6.07;3.83;;;18.20;78.30;;;;;;5094033;28;20392;-60
2021/09/24 01:09:24;;;;;;;5.65;3.28;;;18.20;78.50;;;;;;5094789;28;20108;-60
2021/09/24 01:11:53;;;;;;;5.55;3.20;;;18.20;78.60;;;;;;5093531;28;20051;-60
2021/09/24 01:14:20;;;;;;;6.80;4.47;;;18.20;78.70;;;;;;5076357;28;20044;-60
2021/09/24 01:16:48;;;;;;;5.32;3.55;;;18.10;78.70;;;;;;5076455;28;20162;-60
2021/09/24 01:19:15;;;;;;;5.63;3.28;;;18.10;78.70;;;;;;5093607;28;20386;-61
2021/09/24 01:21:43;;;;;;;6.40;3.75;;;18.10;78.60;;;;;;5094678;28;20460;-60
2021/09/24 01:24:11;;;;;;;7.28;3.42;;;18.10;78.60;;;;;;5094502;28;20040;-61
2021/09/24 01:26:49;;;;;;;7.72;3.38;;;18.00;78.70;;;;;;5089276;28;20036;-60
2021/09/24 01:29:18;;;;;;;7.78;3.97;;;18.00;78.70;;;;;;5084753;28;20036;-60
2021/09/24 01:31:45;;;;;;;7.97;4.07;;;18.00;78.90;;;;;;5076306;28;20047;-61
2021/09/24 01:34:13;;;;;;;4.45;3.10;;;18.00;79.00;;;;;;5083270;28;20032;-60
2021/09/24 01:36:41;;;;;;;6.45;2.80;;;18.00;79.20;;;;;;5074336;28;20044;-60
2021/09/24 01:39:10;;;;;;;6.63;3.35;;;17.90;79.30;;;;;;5074148;28;20094;-60
2021/09/24 01:41:43;;;;;;;4.97;3.05;;;17.90;79.50;;;;;;5073963;28;20041;-60
2021/09/24 01:44:11;;;;;;;5.38;3.03;;;17.90;79.60;;;;;;5087892;28;20051;-61
2021/09/24 01:46:40;;;;;;;4.65;2.90;;;17.90;79.80;;;;;;5059612;28;20044;-60
2021/09/24 01:49:09;;;;;;;4.35;3.25;;;17.90;79.90;;;;;;5094119;28;20094;-60
2021/09/24 01:51:39;;;;;;;4.65;2.88;;;17.90;80.00;;;;;;5094225;28;20048;-60
2021/09/24 01:54:10;;;;;;;4.53;2.67;;;18.00;80.30;;;;;;5093952;28;20043;-60
2021/09/24 01:56:38;;;;;;;6.55;2.58;;;18.00;80.40;;;;;;5093092;28;20032;-60
2021/09/24 01:59:06;;;;;;;5.88;2.45;;;18.00;80.70;;;;;;5091586;28;20036;-61
2021/09/24 02:01:34;;;;;;;5.38;2.28;;;18.00;80.90;;;;;;5072580;28;20044;-60
2021/09/24 02:04:11;;;;;;;4.90;2.35;;;18.10;81.00;;;;;;5073683;28;20096;-61
2021/09/24 02:06:38;;;;;;;5.32;2.72;;;18.10;81.00;;;;;;5072383;28;20099;-61
2021/09/24 02:09:06;;;;;;;4.13;2.25;;;18.10;81.00;;;;;;5072247;28;20041;-60
2021/09/24 02:11:34;;;;;;;5.43;2.80;;;18.10;81.00;;;;;;5073764;28;20390;-60
2021/09/24 02:14:02;;;;;;;5.28;2.25;;;18.20;81.10;;;;;;5072434;28;20040;-60
2021/09/24 02:16:30;;;;;;;3.17;2.22;;;18.20;81.00;;;;;;5072282;28;20047;-60
2021/09/24 02:18:59;;;;;;;5.43;2.65;;;18.20;81.10;;;;;;5073422;28;20048;-60
2021/09/24 02:21:26;;;;;;;3.35;2.30;;;18.20;81.10;;;;;;5072170;28;20041;-60
2021/09/24 02:23:55;;;;;;;3.22;1.67;;;18.20;81.10;;;;;;5072353;28;20505;-60
2021/09/24 02:26:24;;;;;;;4.88;2.00;;;18.20;81.10;;;;;;5073634;28;20359;-60
2021/09/24 02:29:04;;;;;;;3.38;2.20;;;18.20;81.20;;;;;;5072600;28;20033;-61
2021/09/24 02:31:32;;;;;;;3.90;2.47;;;18.20;81.20;;;;;;5078408;28;20505;-60
2021/09/24 02:34:00;;;;;;;3.83;2.53;;;18.20;81.20;;;;;;5093647;28;20044;-60
2021/09/24 02:36:27;;;;;;;4.80;2.20;;;18.20;81.30;;;;;;5092557;28;20040;-60
2021/09/24 02:38:55;;;;;;;4.57;2.40;;;18.20;81.40;;;;;;5075683;28;20134;-60
2021/09/24 02:41:23;;;;;;;6.50;2.20;;;18.20;81.40;;;;;;5092395;28;20051;-61
2021/09/24 02:43:50;;;;;;;4.25;2.50;;;18.20;81.50;;;;;;5093982;28;20501;-60
2021/09/24 02:46:18;;;;;;;4.07;1.95;;;18.20;81.50;;;;;;5093397;28;20044;-60
2021/09/24 02:48:46;;;;;;;4.38;2.30;;;18.20;81.50;;;;;;5092325;28;20047;-60
2021/09/24 02:51:14;;;;;;;4.68;2.67;;;18.20;81.70;;;;;;5092294;28;20131;-61
2021/09/24 02:53:41;;;;;;;4.07;2.20;;;18.20;81.80;;;;;;5092438;28;20042;-60
2021/09/24 02:56:09;;;;;;;4.78;2.17;;;18.20;82.00;;;;;;5093469;28;20052;-61
2021/09/24 02:58:37;;;;;;;4.35;2.58;;;18.20;82.00;;;;;;5075282;28;20118;-60
2021/09/24 03:01:04;;;;;;;7.20;2.65;;;18.20;82.10;;;;;;5075299;28;20402;-60
2021/09/24 03:03:32;;;;;;;3.75;2.15;;;18.20;82.10;;;;;;5075405;28;20040;-60
2021/09/24 03:05:59;;;;;;;4.85;2.35;;;18.20;82.10;;;;;;5092228;28;20501;-60
2021/09/24 03:08:27;;;;;;;4.40;2.20;;;18.20;82.10;;;;;;5091830;28;20094;-60
2021/09/24 03:10:55;;;;;;;3.63;2.17;;;18.10;82.10;;;;;;5092154;28;20044;-60
2021/09/24 03:13:23;;;;;;;3.38;2.13;;;18.10;82.00;;;;;;5075190;28;20418;-61
2021/09/24 03:15:51;;;;;;;3.03;1.77;;;18.10;82.00;;;;;;5092984;28;20139;-60
2021/09/24 03:18:18;;;;;;;4.65;1.83;;;18.00;82.10;;;;;;5093331;28;20454;-60
2021/09/24 03:20:46;;;;;;;9.73;3.22;;;18.00;82.10;;;;;;5093247;28;20041;-60
2021/09/24 03:23:14;;;;;;;5.68;2.63;;;17.90;82.20;;;;;;5091994;28;20481;-61
2021/09/24 03:25:41;;;;;;;5.15;3.10;;;17.90;82.00;;;;;;5088281;28;20090;-60
2021/09/24 03:28:11;;;;;;;4.97;3.10;;;17.90;82.10;;;;;;5075128;28;20517;-60
2021/09/24 03:30:38;;;;;;;6.60;3.55;;;17.80;82.10;;;;;;5058306;28;20037;-60
2021/09/24 03:33:06;;;;;;;7.72;3.88;;;17.80;82.20;;;;;;5055170;28;20041;-60
2021/09/24 03:35:34;;;;;;;12.70;4.03;;;17.70;82.40;;;;;;5056373;28;20064;-60
2021/09/24 03:38:01;;;;;;;5.78;2.83;;;17.70;82.60;;;;;;5055056;28;20041;-60
2021/09/24 03:40:29;;;;;;;4.60;3.15;;;17.60;82.70;;;;;;5055029;28;20051;-60
2021/09/24 03:42:58;;;;;;;4.47;2.65;;;17.60;82.90;;;;;;5056295;28;20506;-60
2021/09/24 03:45:27;;;;;;;5.30;2.88;;;17.60;83.30;;;;;;5054906;28;20049;-60
2021/09/24 03:47:55;;;;;;;4.40;2.72;;;17.60;83.10;;;;;;5055076;28;20226;-60
2021/09/24 03:50:24;;;;;;;4.43;2.17;;;17.60;83.30;;;;;;5054681;28;20392;-60
2021/09/24 03:52:52;;;;;;;5.05;2.65;;;17.50;83.40;;;;;;5038112;28;20131;-61
2021/09/24 03:55:20;;;;;;;4.40;2.40;;;17.50;83.50;;;;;;5038038;28;20048;-60
2021/09/24 03:57:50;;;;;;;4.60;2.47;;;17.50;83.60;;;;;;5072443;28;20116;-60
2021/09/24 04:00:18;;;;;;;3.88;2.75;;;17.40;83.90;;;;;;5078316;28;20051;-60
2021/09/24 04:02:46;;;;;;;4.18;2.33;;;17.40;83.60;;;;;;5095087;28;20064;-60
2021/09/24 04:05:14;;;;;;;6.57;2.65;;;17.40;83.80;;;;;;5077888;28;20044;-60
2021/09/24 04:07:42;;;;;;;4.60;2.15;;;17.40;83.90;;;;;;5094683;28;20059;-61
2021/09/24 04:10:10;;;;;;;4.38;2.35;;;17.40;84.00;;;;;;5094768;28;20094;-61
2021/09/24 04:12:38;;;;;;;4.68;2.65;;;17.30;84.00;;;;;;5096259;28;20089;-60
2021/09/24 04:15:06;;;;;;;6.32;2.78;;;17.30;84.10;;;;;;5093973;28;20048;-60
2021/09/24 04:17:34;;;;;;;3.15;1.92;;;17.30;84.30;;;;;;5083116;28;20048;-60
2021/09/24 04:20:02;;;;;;;3.05;1.98;;;17.30;84.50;;;;;;5094367;28;20044;-61
2021/09/24 04:22:30;;;;;;;4.57;2.40;;;17.30;84.60;;;;;;5090116;28;20379;-60
2021/09/24 04:24:58;;;;;;;5.00;2.40;;;17.40;84.80;;;;;;5074433;28;20115;-60
2021/09/24 04:27:25;;;;;;;3.60;2.38;;;17.40;84.90;;;;;;5075229;28;20036;-60
2021/09/24 04:29:53;;;;;;;4.07;1.88;;;17.40;85.20;;;;;;5086728;28;20051;-60
2021/09/24 04:32:22;;;;;;;4.32;2.22;;;17.40;85.40;;;;;;5077440;28;20513;-60
2021/09/24 04:34:52;;;;;;;4.78;2.50;;;17.40;85.50;;;;;;5094173;28;20047;-60
2021/09/24 04:37:20;;;;;;;6.28;2.20;;;17.50;85.80;;;;;;5095207;28;20064;-61
2021/09/24 04:39:48;;;;;;;3.80;2.05;;;17.50;85.90;;;;;;5057921;28;20041;-60
2021/09/24 04:42:15;;;;;;;3.42;1.95;;;17.60;86.20;;;;;;5073670;28;20048;-60
2021/09/24 04:44:43;;;;;;;4.15;2.17;;;17.60;86.50;;;;;;5077157;28;20045;-60
2021/09/24 04:47:11;;;;;;;7.47;2.33;;;17.60;86.90;;;;;;5095139;28;20039;-61
2021/09/24 04:49:39;;;;;;;3.55;2.00;;;17.70;87.30;;;;;;5080311;28;20044;-60
2021/09/24 04:52:06;;;;;;;4.25;1.70;;;17.80;87.40;;;;;;5073724;28;20094;-61
2021/09/24 04:54:34;;;;;;;6.20;2.95;;;17.80;87.30;;;;;;5062276;28;20044;-60
2021/09/24 04:57:02;;;;;;;4.95;2.58;;;17.90;87.20;;;;;;5082265;28;20044;-60
2021/09/24 04:59:30;;;;;;;4.20;2.78;;;18.00;87.00;;;;;;5085859;28;20563;-60
2021/09/24 05:01:57;;;;;;;4.07;2.67;;;18.10;86.90;;;;;;5087591;28;20097;-60
2021/09/24 05:04:25;;;;;;;6.47;2.45;;;18.20;86.80;;;;;;5060223;28;20074;-60
2021/09/24 05:06:52;;;;;;;5.28;2.58;;;18.40;86.40;;;;;;5093336;28;20497;-60
2021/09/24 05:09:20;;;;;;;5.53;2.03;;;18.60;85.90;;;;;;5093709;28;20117;-61
2021/09/24 05:11:48;;;;;;;3.80;1.92;;;18.80;85.50;;;;;;5093560;28;20405;-60
2021/09/24 05:14:15;;;;;;;2.75;1.73;;;19.00;85.00;;;;;;5092483;28;20090;-61
2021/09/24 05:16:43;;;;;;;7.15;2.72;;;19.30;84.50;;;;;;5074416;28;20040;-60
2021/09/24 05:19:11;;;;;;;3.72;2.53;;;19.50;83.90;;;;;;5074533;28;20040;-61
2021/09/24 05:21:38;;;;;;;4.88;2.20;;;19.70;83.40;;;;;;5073278;28;20075;-60
2021/09/24 05:24:06;;;;;;;3.08;2.38;;;19.90;82.90;;;;;;5074362;28;20048;-60
2021/09/24 05:26:33;;;;;;;4.28;2.13;;;20.00;82.50;;;;;;5073246;28;20048;-60
2021/09/24 05:29:01;;;;;;;3.97;2.22;;;20.20;82.10;;;;;;5074085;28;20040;-61
2021/09/24 05:31:29;;;;;;;6.50;2.78;;;20.40;81.80;;;;;;5056455;28;20390;-61
2021/09/24 05:33:56;;;;;;;4.10;2.47;;;20.60;81.40;;;;;;5074308;28;20045;-60
2021/09/24 05:36:24;;;;;;;6.70;2.70;;;20.70;81.00;;;;;;5073964;28;20053;-60
2021/09/24 05:38:52;;;;;;;4.28;2.50;;;20.70;80.50;;;;;;5056128;28;20040;-60
2021/09/24 05:41:19;;;;;;;3.50;1.85;;;20.80;80.40;;;;;;5073959;28;20119;-61
2021/09/24 05:43:50;;;;;;;5.30;2.05;;;20.90;80.30;;;;;;5092892;28;20501;-61
2021/09/24 05:46:18;;;;;;;3.70;2.40;;;21.00;80.20;;;;;;5076164;28;20044;-58
2021/09/24 05:48:47;;;;;;;4.55;2.63;;;21.20;79.80;;;;;;5081175;28;20153;-59
2021/09/24 05:51:14;;;;;;;4.50;2.10;;;21.40;79.60;;;;;;5092015;28;20068;-58
2021/09/24 05:53:42;;;;;;;3.63;2.53;;;21.60;79.20;;;;;;5070875;28;20701;-58
2021/09/24 05:56:10;;;;;;;7.75;2.92;;;21.70;78.90;;;;;;5078138;28;20481;-59
2021/09/24 05:58:38;;;;;;;5.32;2.53;;;21.90;78.50;;;;;;5092883;28;20040;-59
2021/09/24 06:01:05;;;;;;;9.93;2.63;;;22.00;78.00;;;;;;5093935;28;20047;-59
2021/09/24 06:03:33;;;;;;;5.20;2.67;;;22.20;77.70;;;;;;5093848;28;20032;-59
2021/09/24 06:06:01;;;;;;;5.07;2.45;;;22.30;77.40;;;;;;5094087;28;20131;-59
2021/09/24 06:08:28;;;;;;;5.10;2.40;;;22.40;76.90;;;;;;5073563;28;20060;-60
2021/09/24 06:10:56;;;;;;;6.63;3.38;;;22.60;76.50;;;;;;5061940;28;20037;-60
2021/09/24 06:13:24;;;;;;;25.52;4.70;;;22.70;76.10;;;;;;5078304;28;20081;-60
2021/09/24 06:15:51;;;;;;;7.78;3.63;;;22.90;76.80;;;;;;5080063;28;20040;-60
2021/09/24 06:18:19;;;;;;;8.38;2.97;;;23.10;76.20;;;;;;5065301;28;20045;-60
2021/09/24 06:20:47;;;;;;;7.03;3.83;;;23.20;75.60;;;;;;5054677;28;20041;-60
2021/09/24 06:23:15;;;;;;;9.30;3.90;;;23.40;75.50;;;;;;5083762;28;20047;-60
2021/09/24 06:25:42;;;;;;;10.95;3.90;;;23.50;75.10;;;;;;5053056;28;20041;-59
2021/09/24 06:28:10;;;;;;;8.20;3.72;;;23.60;75.00;;;;;;5053679;28;20087;-60
2021/09/24 06:30:37;;;;;;;5.13;3.17;;;23.80;74.30;;;;;;5053438;28;20049;-59
2021/09/24 06:33:05;;;;;;;5.80;3.55;;;23.90;73.90;;;;;;5052143;28;20052;-60
2021/09/24 06:35:33;;;;;;;5.25;3.58;;;24.00;73.80;;;;;;5053195;28;20593;-60
2021/09/24 06:38:00;;;;;;;6.82;2.85;;;24.10;73.30;;;;;;5053464;28;20044;-59
2021/09/24 06:40:28;;;;;;;8.75;3.17;;;24.20;73.00;;;;;;5052236;28;20033;-59
2021/09/24 06:42:55;;;;;;;4.30;2.88;;;24.30;72.80;;;;;;5052894;28;20049;-60
2021/09/24 06:45:23;;;;;;;6.00;3.00;;;24.40;72.60;;;;;;5051976;28;20047;-60
2021/09/24 06:47:51;;;;;;;4.68;2.95;;;24.60;72.30;;;;;;5053163;28;20077;-60
2021/09/24 06:50:18;;;;;;;5.05;2.85;;;24.70;72.10;;;;;;5052941;28;20053;-60
2021/09/24 06:52:46;;;;;;;6.40;3.08;;;24.80;72.20;;;;;;5053323;28;20045;-59
2021/09/24 06:55:14;;;;;;;9.80;4.20;;;25.00;71.90;;;;;;5053233;28;20534;-60
2021/09/24 06:57:41;;;;;;;5.80;3.45;;;25.10;71.50;;;;;;5053269;28;20049;-60
2021/09/24 07:00:09;;;;;;;8.52;3.17;;;25.20;71.00;;;;;;5053417;28;20414;-59
2021/09/24 07:02:37;;;;;;;6.60;3.20;;;25.40;70.90;;;;;;5065019;28;20043;-60
2021/09/24 07:05:05;;;;;;;9.05;3.28;;;25.50;70.70;;;;;;5079714;28;20051;-60
2021/09/24 07:07:33;;;;;;;7.22;3.30;;;25.50;70.80;;;;;;5083299;28;20542;-60
2021/09/24 07:10:01;;;;;;;8.02;3.22;;;25.60;70.40;;;;;;5086927;28;20044;-60
2021/09/24 07:12:29;;;;;;;9.27;4.22;;;25.70;70.50;;;;;;5094849;28;20044;-61
2021/09/24 07:14:56;;;;;;;9.02;3.22;;;25.70;70.10;;;;;;5086426;28;20131;-59
2021/09/24 07:17:24;;;;;;;6.43;2.90;;;25.80;70.00;;;;;;5079653;28;20437;-59
2021/09/24 07:19:52;;;;;;;6.07;3.08;;;25.80;69.70;;;;;;5094957;28;20048;-59
2021/09/24 07:22:19;;;;;;;4.57;2.42;;;25.90;69.80;;;;;;5090632;28;20048;-59
2021/09/24 07:24:49;;;;;;;5.60;2.35;;;26.00;69.90;;;;;;5095448;28;20398;-59
2021/09/24 07:27:17;;;;;;;9.63;2.80;;;26.00;69.90;;;;;;5064506;28;20040;-59
2021/09/24 07:29:45;;;;;;;4.15;2.70;;;26.00;69.80;;;;;;5075476;28;20044;-59
2021/09/24 07:32:13;;;;;;;4.55;2.70;;;26.10;70.00;;;;;;5083323;28;20102;-59
2021/09/24 07:34:43;;;;;;;6.30;2.83;;;26.20;69.80;;;;;;5075078;28;20048;-59
2021/09/24 07:37:11;;;;;;;6.80;2.63;;;26.30;69.80;;;;;;5077057;28;20045;-59
2021/09/24 07:39:40;;;;;;;4.60;2.05;;;26.40;69.70;;;;;;5094243;28;20059;-59
2021/09/24 07:42:08;;;;;;;3.33;2.40;;;26.50;70.00;;;;;;5077194;28;20044;-59
2021/09/24 07:44:36;;;;;;;3.30;2.05;;;26.60;69.90;;;;;;5058296;28;20045;-59
2021/09/24 07:47:04;;;;;;;3.83;2.40;;;26.60;69.70;;;;;;5064354;28;20048;-60
2021/09/24 07:49:31;;;;;;;2.72;1.73;;;26.70;69.90;;;;;;5089121;28;20051;-59
2021/09/24 07:51:59;;;;;;;4.38;1.85;;;26.70;69.80;;;;;;5090538;28;20516;-60
2021/09/24 07:54:27;;;;;;;8.43;2.78;;;26.80;69.80;;;;;;5091733;28;20502;-59
2021/09/24 07:56:55;;;;;;;5.80;2.25;;;26.90;69.50;;;;;;5075795;28;20048;-60
2021/09/24 07:59:22;;;;;;;4.43;1.65;;;26.80;69.40;;;;;;5077296;28;20068;-60
2021/09/24 08:01:50;;;;;;;4.10;1.80;;;26.90;69.50;;;;;;5094889;28;20050;-60
2021/09/24 08:04:18;;;;;;;5.25;2.00;;;26.80;69.40;;;;;;5093809;28;20055;-60
2021/09/24 08:06:47;;;;;;;4.78;1.92;;;26.90;69.40;;;;;;5093810;28;20048;-61
2021/09/24 08:09:14;;;;;;;3.60;2.20;;;27.00;69.30;;;;;;5094745;28;20097;-60
2021/09/24 08:11:42;;;;;;;4.90;1.90;;;27.10;69.20;;;;;;5084427;28;20044;-61
2021/09/24 08:14:10;;;;;;;5.93;2.40;;;27.10;68.90;;;;;;5085956;28;20040;-59
2021/09/24 08:16:37;;;;;;;16.17;3.20;;;27.30;68.60;;;;;;5084048;28;20044;-61
2021/09/24 08:19:05;;;;;;;10.02;3.33;;;27.30;68.80;;;;;;5094671;28;20395;-61
2021/09/24 08:21:32;;;;;;;14.40;3.05;;;27.30;68.90;;;;;;5094576;28;20036;-61
2021/09/24 08:24:00;;;;;;;4.82;2.25;;;27.30;68.60;;;;;;5094348;28;20052;-61
2021/09/24 08:26:29;;;;;;;8.15;3.65;;;27.40;68.30;;;;;;5092738;28;20066;-61
2021/09/24 08:28:56;;;;;;;6.80;2.92;;;27.30;68.40;;;;;;5082684;28;20047;-60
2021/09/24 08:31:24;;;;;;;5.75;2.45;;;27.40;68.50;;;;;;5087967;28;20501;-60
2021/09/24 08:33:52;;;;;;;14.18;3.20;;;27.40;68.20;;;;;;5085549;28;20131;-61
2021/09/24 08:36:19;;;;;;;3.90;2.22;;;27.40;68.60;;;;;;5075963;28;20777;-61
2021/09/24 08:38:47;;;;;;;11.30;2.20;;;27.40;67.90;;;;;;5078382;28;20062;-61
2021/09/24 08:41:15;;;;;;;6.45;2.63;;;27.30;67.50;;;;;;5086872;28;20477;-61
2021/09/24 08:43:48;;;;;;;3.00;1.40;;;27.20;67.50;;;;;;5054060;28;20083;-61
2021/09/24 08:46:16;;;;;;;3.70;1.75;;;27.20;67.20;;;;;;5079052;28;20397;-61
2021/09/24 08:48:44;;;;;;;5.00;1.92;;;27.10;67.30;;;;;;5083240;28;20045;-61
2021/09/24 08:51:12;;;;;;;7.07;2.97;;;27.00;67.80;;;;;;5077844;28;20063;-61
2021/09/24 08:53:40;;;;;;;7.13;3.30;;;26.90;68.80;;;;;;5086800;28;20044;-61
2021/09/24 08:56:10;;;;;;;8.63;3.25;;;27.00;69.20;;;;;;5089948;28;20527;-61
2021/09/24 08:58:37;;;;;;;5.38;2.13;;;27.00;68.50;;;;;;5074957;28;20043;-61
2021/09/24 09:01:05;;;;;;;6.68;2.72;;;27.10;68.50;;;;;;5075727;28;20433;-61
2021/09/24 09:03:39;;;;;;;8.27;2.95;;;27.20;68.10;;;;;;5074338;28;20048;-61
2021/09/24 09:06:07;;;;;;;4.13;1.92;;;27.30;68.70;;;;;;5086384;28;20052;-61
2021/09/24 09:08:35;;;;;;;2.22;1.48;;;27.20;66.70;;;;;;5073146;28;20052;-60
2021/09/24 09:11:14;;;;;;;8.95;2.47;;;27.30;66.60;;;;;;5079834;28;20036;-61
2021/09/24 09:13:53;;;;;;;8.27;2.33;;;27.30;68.20;;;;;;5094842;28;20059;-60
2021/09/24 09:16:28;;;;;;;3.45;2.10;;;27.40;67.60;;;;;;5089047;28;20037;-61
2021/09/24 09:19:12;;;;;;;7.10;2.78;;;27.50;67.20;;;;;;5073357;28;20047;-61
2021/09/24 09:21:43;;;;;;;7.05;3.40;;;27.50;67.40;;;;;;5082784;28;20055;-61
2021/09/24 09:24:14;;;;;;;9.82;2.72;;;27.70;67.80;;;;;;5094512;28;20040;-61
2021/09/24 09:26:42;;;;;;;5.55;2.08;;;27.80;67.90;;;;;;5080293;28;20071;-61
2021/09/24 09:29:11;;;;;;;5.00;2.15;;;27.80;67.50;;;;;;5072620;28;20052;-61
2021/09/24 09:32:00;;;;;;;5.70;2.83;;;27.80;67.40;;;;;;5084921;28;20044;-61
2021/09/24 09:34:33;;;;;;;6.40;2.50;;;27.90;67.40;;;;;;5094670;28;20071;-61
2021/09/24 09:37:17;;;;;;;6.43;2.58;;;27.90;66.90;;;;;;5082960;28;20609;-61
2021/09/24 09:39:59;;;;;;;3.17;1.63;;;27.90;66.80;;;;;;5074156;28;20051;-62
2021/09/24 09:42:34;;;;;;;4.25;2.03;;;27.80;65.60;;;;;;5072907;28;20056;-62
2021/09/24 09:45:04;;;;;;;7.10;2.10;;;27.70;66.70;;;;;;5073999;28;20371;-62
2021/09/24 09:47:34;;;;;;;4.43;2.10;;;27.70;66.90;;;;;;5074025;28;20394;-62
2021/09/24 09:50:21;;;;;;;2.65;1.60;;;27.80;65.80;;;;;;5076412;28;20040;-61
2021/09/24 09:52:58;;;;;;;3.85;1.48;;;27.80;66.30;;;;;;5085981;28;20044;-62
2021/09/24 09:55:29;;;;;;;5.07;2.17;;;28.00;65.40;;;;;;5094020;28;20507;-62
2021/09/24 09:58:02;;;;;;;7.03;2.17;;;28.00;65.70;;;;;;5086038;28;20044;-62
2021/09/24 10:00:32;;;;;;;4.47;1.80;;;27.90;65.60;;;;;;5064293;28;20040;-61
2021/09/24 10:03:10;;;;;;;4.97;1.60;;;27.90;65.20;;;;;;5084684;28;20397;-62
2021/09/24 10:05:41;;;;;;;2.78;1.48;;;27.80;65.00;;;;;;5052591;28;20041;-60
2021/09/24 10:08:23;;;;;;;4.03;2.15;;;27.70;65.10;;;;;;5073771;28;20044;-60
2021/09/24 10:11:02;;;;;;;6.07;2.20;;;27.70;65.80;;;;;;5074184;28;20041;-61
2021/09/24 10:13:34;;;;;;;4.97;2.58;;;27.70;66.30;;;;;;5088991;28;20048;-60
2021/09/24 10:16:03;;;;;;;3.22;1.90;;;27.80;66.30;;;;;;5072378;28;20094;-60
2021/09/24 10:18:32;;;;;;;3.33;2.03;;;27.90;64.80;;;;;;5085261;28;20573;-60
2021/09/24 10:21:00;;;;;;;6.18;1.73;;;27.80;65.40;;;;;;5087409;28;20056;-60
2021/09/24 10:23:28;;;;;;;4.07;1.65;;;27.60;66.40;;;;;;5078513;28;20048;-61
2021/09/24 10:26:00;;;;;;;6.10;3.25;;;27.50;67.10;;;;;;5081642;28;20505;-60
2021/09/24 10:28:32;;;;;;;11.10;2.13;;;27.60;67.20;;;;;;5091226;28;20424;-60
2021/09/24 10:31:01;;;;;;;5.10;1.80;;;27.60;66.70;;;;;;5085702;28;20129;-62
2021/09/24 10:34:00;;;;;;;2.70;1.50;;;27.50;66.10;;;;;;5090391;28;20046;-61
2021/09/24 10:36:56;;;;;;;11.40;3.22;;;27.50;66.90;;;;;;5092228;28;20130;-61
2021/09/24 10:39:30;;;;;;;;;;;27.40;67.20;;;;;;5090131;28;20143;-61
2021/09/24 10:42:19;;;;;;;3.22;1.90;;;27.30;66.30;;;;;;5096713;28;19950;-61
2021/09/24 10:45:11;;;;;;;2.72;1.58;;;27.40;66.60;;;;;;5050321;28;20057;-62
2021/09/24 10:47:48;;;;;;;2.63;1.60;;;27.30;66.80;;;;;;5083931;28;20096;-62
2021/09/24 10:50:30;;;;;;;4.57;1.88;;;27.20;67.20;;;;;;5093887;28;20044;-62
2021/09/24 10:53:10;;;;;;;6.63;1.90;;;27.20;67.50;;;;;;5084637;28;20143;-62
2021/09/24 10:55:46;;;;;;;4.35;2.55;;;27.30;67.30;;;;;;5096201;28;20059;-62
2021/09/24 10:58:35;;;;;;;4.70;2.13;;;27.40;66.20;;;;;;5056096;28;20057;-62
2021/09/24 11:01:28;;;;;;;3.90;2.78;;;27.60;65.70;;;;;;5063597;28;20044;-62
2021/09/24 11:04:10;;;;;;;7.57;2.60;;;27.60;66.60;;;;;;5054792;28;20060;-62
2021/09/24 11:06:43;;;;;;;2.72;1.58;;;27.40;67.50;;;;;;5080215;28;20053;-62
2021/09/24 11:09:13;;;;;;;2.63;1.70;;;27.20;68.00;;;;;;5088343;28;20093;-61
2021/09/24 11:11:43;;;;;;;4.05;1.60;;;26.90;68.60;;;;;;5059588;28;20048;-61
2021/09/24 11:14:32;;;;;;;12.32;3.30;;;26.80;69.00;;;;;;5075720;28;20102;-61
2021/09/24 11:17:03;;;;;;;7.85;2.75;;;26.80;69.30;;;;;;5076492;28;20040;-61
2021/09/24 11:19:33;;;;;;;4.43;2.00;;;26.80;69.20;;;;;;5094202;28;20040;-62
2021/09/24 11:22:16;;;;;;;4.25;2.17;;;26.90;68.80;;;;;;5085411;28;20044;-60
2021/09/24 11:24:59;;;;;;;11.77;3.00;;;26.80;68.30;;;;;;5084507;28;20067;-60
2021/09/24 11:27:39;;;;;;;4.72;2.30;;;26.90;69.10;;;;;;5095622;28;20051;-62
2021/09/24 11:30:06;;;;;;;4.75;2.17;;;27.00;68.60;;;;;;5095789;28;20048;-61
2021/09/24 11:32:53;;;;;;;5.20;2.08;;;26.90;69.10;;;;;;5085883;28;20052;-61
2021/09/24 11:35:29;;;;;;;3.10;2.00;;;26.80;68.70;;;;;;5087618;28;20437;-61
2021/09/24 11:38:32;;;;;;;5.57;1.92;;;26.80;68.70;;;;;;5075292;28;20044;-62
2021/09/24 11:41:01;;;;;;;3.20;1.90;;;26.70;69.00;;;;;;4993849;28;20446;-62
2021/09/24 11:43:37;;;;;;;4.22;2.28;;;26.70;69.50;;;;;;5060474;28;20398;-62
2021/09/24 11:46:18;;;;;;;4.65;1.90;;;26.60;69.20;;;;;;5074996;28;20527;-62
2021/09/24 11:48:46;;;;;;;5.30;2.28;;;26.60;69.10;;;;;;5075006;28;20051;-62
2021/09/24 11:51:21;;;;;;;3.75;1.73;;;26.40;69.40;;;;;;5082789;28;20044;-62
2021/09/24 11:53:52;;;;;;;3.05;2.03;;;26.30;69.80;;;;;;5090755;28;20039;-62
2021/09/24 11:56:31;;;;;;;3.55;2.00;;;26.30;69.80;;;;;;5084498;28;20051;-62
2021/09/24 11:59:16;;;;;;;4.22;2.17;;;26.20;69.80;;;;;;5091030;28;20082;-62
2021/09/24 12:01:45;;;;;;;4.45;1.80;;;26.30;69.50;;;;;;5075147;28;20060;-62
2021/09/24 12:04:13;;;;;;;5.57;2.83;;;26.30;69.30;;;;;;5077356;28;20053;-62
2021/09/24 12:06:45;;;;;;;5.70;2.30;;;26.30;69.80;;;;;;5060040;28;20055;-62
2021/09/24 12:09:17;;;;;;;3.72;2.30;;;26.30;70.30;;;;;;5062653;28;20498;-62
2021/09/24 12:11:49;;;;;;;5.18;1.92;;;26.40;70.50;;;;;;5081073;28;20048;-62
2021/09/24 12:14:18;;;;;;;4.65;1.95;;;26.30;70.00;;;;;;5055800;28;20053;-62
2021/09/24 12:16:49;;;;;;;2.60;1.50;;;26.40;70.40;;;;;;5093003;28;20054;-62
2021/09/24 12:19:21;;;;;;;4.95;1.88;;;26.40;70.40;;;;;;5088517;28;20131;-62
2021/09/24 12:21:51;;;;;;;5.68;1.50;;;26.30;70.20;;;;;;5079158;28;20040;-62
2021/09/24 12:24:29;;;;;;;3.00;1.67;;;26.10;70.50;;;;;;5077404;28;20075;-62
2021/09/24 12:27:10;;;;;;;3.25;1.90;;;26.10;71.10;;;;;;5055615;28;20090;-60
2021/09/24 12:29:39;;;;;;;2.78;1.73;;;25.90;70.90;;;;;;5055348;28;20123;-61
2021/09/24 12:32:10;;;;;;;3.50;1.80;;;25.80;71.40;;;;;;5071617;28;20048;-61
2021/09/24 12:34:52;;;;;;;6.82;2.00;;;25.80;71.90;;;;;;5075250;28;20049;-61
2021/09/24 12:37:40;;;;;;;8.38;2.40;;;25.60;71.90;;;;;;5082266;28;20401;-61
2021/09/24 12:40:17;;;;;;;6.82;2.08;;;25.60;72.20;;;;;;5080790;28;20124;-61
2021/09/24 12:42:53;;;;;;;9.40;2.83;;;25.50;72.70;;;;;;5075393;28;20036;-63
2021/09/24 12:45:35;;;;;;;4.05;1.90;;;25.50;72.80;;;;;;5073813;28;20040;-64
2021/09/24 12:48:08;;;;;;;5.05;2.25;;;25.50;72.70;;;;;;5055851;28;20403;-61
2021/09/24 12:50:37;;;;;;;3.17;1.40;;;25.40;72.80;;;;;;5085262;28;20037;-61
2021/09/24 12:53:05;;;;;;;3.00;1.92;;;25.30;72.90;;;;;;5083364;28;20033;-60
2021/09/24 12:55:34;;;;;;;3.28;2.00;;;25.40;73.20;;;;;;5095227;28;20040;-60
2021/09/24 12:58:03;;;;;;;3.03;1.83;;;25.40;73.50;;;;;;5086185;28;20040;-62
2021/09/24 13:00:32;;;;;;;5.97;2.22;;;25.40;73.30;;;;;;5075426;28;20054;-61
2021/09/24 13:03:00;;;;;;;3.88;1.70;;;25.40;73.40;;;;;;5084756;28;20502;-61